createdAt,value
2023-02-15T00:00:20.096Z,48.63
2023-02-15T00:03:05.976Z,47.97
2023-02-15T00:05:51.468Z,50.80
2023-02-15T00:08:37.213Z,47.38
2023-02-15T00:11:41.200Z,47.33
2023-02-15T00:14:28.785Z,53.65
2023-02-15T00:17:14.525Z,52.55
2023-02-15T00:20:00.425Z,54.45
2023-02-15T00:22:45.992Z,54.47
2023-02-15T00:25:31.565Z,57.72
2023-02-15T00:28:17.301Z,66.82
2023-02-15T00:31:10.182Z,60.05
2023-02-15T00:33:55.995Z,59.38
2023-02-15T00:36:41.580Z,62.42
2023-02-15T00:39:28.372Z,73.13
2023-02-15T00:42:13.739Z,60.78
2023-02-15T00:44:59.403Z,68.13
2023-02-15T00:47:49.777Z,61.92
2023-02-15T00:50:35.355Z,58.15
2023-02-15T00:53:23.401Z,56.88
2023-02-15T00:56:09.492Z,49.10
2023-02-15T00:58:55.459Z,47.22
2023-02-15T01:01:41.479Z,46.90
2023-02-15T01:04:28.809Z,46.72
2023-02-15T01:07:16.607Z,48.80
2023-02-15T01:10:02.125Z,47.80
2023-02-15T01:12:48.182Z,48.22
2023-02-15T01:15:35.736Z,57.80
2023-02-15T01:18:22.173Z,54.95
2023-02-15T01:21:15.034Z,57.13
2023-02-15T01:24:03.440Z,50.85
2023-02-15T01:26:49.110Z,53.17
2023-02-15T01:29:34.816Z,49.83
2023-02-15T01:32:20.287Z,45.63
2023-02-15T01:35:07.096Z,51.53
2023-02-15T01:37:55.151Z,49.67
2023-02-15T01:40:40.946Z,48.95
2023-02-15T01:43:41.163Z,47.90
2023-02-15T01:46:32.072Z,46.05
2023-02-15T01:49:20.484Z,41.45
2023-02-15T01:52:06.134Z,40.88
2023-02-15T01:54:53.309Z,56.28
2023-02-15T01:57:39.861Z,48.22
2023-02-15T02:00:25.945Z,54.70
2023-02-15T02:03:12.586Z,43.13
2023-02-15T02:05:58.364Z,55.80
2023-02-15T02:08:44.981Z,55.42
2023-02-15T02:11:32.949Z,55.53
2023-02-15T02:14:18.943Z,50.85
2023-02-15T02:17:13.340Z,54.35
2023-02-15T02:20:17.718Z,54.42
2023-02-15T02:23:25.052Z,60.63
2023-02-15T02:26:58.682Z,52.20
2023-02-15T02:30:07.337Z,59.85
2023-02-15T02:33:21.303Z,59.77
2023-02-15T02:36:16.048Z,53.63
2023-02-15T02:39:19.554Z,61.22
2023-02-15T02:42:13.852Z,56.50
2023-02-15T02:45:04.666Z,60.50
2023-02-15T02:47:54.144Z,55.97
2023-02-15T02:50:43.739Z,55.58
2023-02-15T02:53:31.204Z,58.78
2023-02-15T02:56:23.650Z,51.72
2023-02-15T02:59:14.020Z,61.33
2023-02-15T03:02:05.730Z,61.95
2023-02-15T03:04:59.584Z,57.95
2023-02-15T03:07:50.124Z,52.58
2023-02-15T03:10:37.832Z,58.78
2023-02-15T03:13:25.595Z,57.75
2023-02-15T03:16:28.209Z,52.90
2023-02-15T03:19:18.003Z,57.83
2023-02-15T03:22:10.464Z,54.05
2023-02-15T03:25:02.716Z,63.65
2023-02-15T03:27:54.136Z,59.25
2023-02-15T03:30:45.634Z,53.70
2023-02-15T03:33:31.573Z,60.05
2023-02-15T03:36:21.751Z,56.30
2023-02-15T03:39:13.989Z,52.03
2023-02-15T03:42:08.255Z,55.83
2023-02-15T03:44:59.502Z,55.35
2023-02-15T03:47:48.865Z,57.40
2023-02-15T03:50:57.574Z,55.35
2023-02-15T03:53:44.322Z,54.67
2023-02-15T03:56:30.326Z,55.08
2023-02-15T03:59:35.840Z,57.10
2023-02-15T04:02:25.577Z,54.83
2023-02-15T04:05:11.523Z,51.95
2023-02-15T04:07:57.266Z,54.30
2023-02-15T04:10:56.032Z,53.30
2023-02-15T04:13:43.947Z,52.20
2023-02-15T04:16:31.346Z,53.55
2023-02-15T04:19:35.794Z,49.45
2023-02-15T04:22:40.026Z,55.38
2023-02-15T04:25:25.576Z,53.10
2023-02-15T04:28:11.257Z,54.97
2023-02-15T04:30:56.886Z,55.67
2023-02-15T04:33:44.740Z,52.63
2023-02-15T04:36:30.848Z,52.00
2023-02-15T04:39:18.069Z,46.35
2023-02-15T04:42:03.694Z,49.53
2023-02-15T04:44:49.886Z,45.78
2023-02-15T04:47:35.968Z,53.95
2023-02-15T04:50:23.393Z,52.42
2023-02-15T04:53:09.030Z,50.33
2023-02-15T04:55:54.522Z,52.90
2023-02-15T04:58:42.126Z,54.65
2023-02-15T05:01:28.195Z,46.97
2023-02-15T05:04:14.021Z,50.60
2023-02-15T05:07:00.835Z,55.42
2023-02-15T05:09:46.591Z,49.08
2023-02-15T05:12:32.028Z,61.28
2023-02-15T05:15:17.915Z,54.67
2023-02-15T05:18:03.944Z,56.67
2023-02-15T05:20:50.012Z,64.22
2023-02-15T05:23:37.369Z,61.38
2023-02-15T05:26:43.657Z,55.58
2023-02-15T05:29:29.791Z,56.53
2023-02-15T05:32:16.169Z,53.95
2023-02-15T05:35:02.038Z,59.17
2023-02-15T05:37:47.818Z,56.80
2023-02-15T05:40:35.015Z,52.15
2023-02-15T05:43:21.034Z,59.55
2023-02-15T05:46:07.189Z,52.47
2023-02-15T05:48:53.171Z,54.38
2023-02-15T05:51:38.610Z,54.80
2023-02-15T05:54:24.318Z,53.10
2023-02-15T05:57:11.277Z,58.45
2023-02-15T05:59:56.809Z,54.03
2023-02-15T06:02:42.599Z,52.42
2023-02-15T06:05:28.300Z,52.88
2023-02-15T06:08:14.264Z,51.03
2023-02-15T06:11:00.195Z,52.38
2023-02-15T06:13:47.252Z,62.60
2023-02-15T06:16:32.781Z,56.78
2023-02-15T06:19:18.364Z,59.80
2023-02-15T06:22:03.845Z,58.55
2023-02-15T06:24:49.404Z,56.67
2023-02-15T06:27:34.879Z,55.03
2023-02-15T06:30:22.327Z,53.05
2023-02-15T06:33:08.123Z,51.10
2023-02-15T06:35:53.670Z,53.92
2023-02-15T06:38:39.415Z,53.78
2023-02-15T06:41:25.231Z,51.75
2023-02-15T06:44:10.988Z,53.10
2023-02-15T06:46:58.509Z,44.53
2023-02-15T06:49:44.067Z,53.72
2023-02-15T06:52:30.727Z,52.47
2023-02-15T06:55:16.576Z,57.33
2023-02-15T06:58:02.440Z,51.60
2023-02-15T07:00:48.083Z,69.10
2023-02-15T07:03:35.685Z,58.20
2023-02-15T07:06:21.490Z,51.22
2023-02-15T07:09:07.979Z,51.15
2023-02-15T07:12:12.105Z,60.53
2023-02-15T07:14:59.180Z,61.50
2023-02-15T07:17:45.499Z,52.35
2023-02-15T07:20:35.665Z,56.92
2023-02-15T07:23:23.123Z,57.55
2023-02-15T07:26:08.754Z,56.78
2023-02-15T07:28:54.782Z,61.25
2023-02-15T07:31:40.463Z,63.30
2023-02-15T07:34:26.017Z,59.30
2023-02-15T07:37:12.980Z,60.13
2023-02-15T07:39:58.682Z,62.80
2023-02-15T07:42:44.420Z,61.42
2023-02-15T07:45:30.215Z,58.10
2023-02-15T07:48:15.796Z,61.60
2023-02-15T07:51:02.980Z,55.97
2023-02-15T07:53:52.421Z,54.35
2023-02-15T07:56:38.205Z,61.63
2023-02-15T07:59:25.082Z,55.05
2023-02-15T08:02:11.783Z,53.15
2023-02-15T08:04:57.790Z,51.22
2023-02-15T08:07:43.337Z,51.70
2023-02-15T08:10:49.266Z,47.15
2023-02-15T08:13:34.793Z,50.95
2023-02-15T08:16:21.422Z,56.72
2023-02-15T08:19:09.619Z,43.83
2023-02-15T08:22:00.317Z,48.88
2023-02-15T08:24:46.004Z,44.80
2023-02-15T08:27:33.385Z,41.90
2023-02-15T08:30:19.224Z,41.03
2023-02-15T08:33:05.456Z,45.58
2023-02-15T08:35:51.104Z,43.47
2023-02-15T08:38:37.116Z,36.20
2023-02-15T08:41:25.185Z,42.10
2023-02-15T08:44:15.474Z,40.20
2023-02-15T08:47:04.501Z,40.45
2023-02-15T08:49:50.331Z,35.65
2023-02-15T08:52:36.267Z,39.17
2023-02-15T08:55:21.848Z,40.53
2023-02-15T08:58:07.349Z,41.13
2023-02-15T09:00:54.832Z,36.53
2023-02-15T09:03:40.807Z,37.20
2023-02-15T09:06:27.932Z,38.78
2023-02-15T09:09:13.822Z,38.63
2023-02-15T09:11:59.861Z,36.30
2023-02-15T09:14:45.697Z,36.67
2023-02-15T09:17:33.041Z,38.25
2023-02-15T09:20:18.948Z,35.85
2023-02-15T09:23:04.576Z,36.95
2023-02-15T09:25:50.428Z,37.22
2023-02-15T09:28:36.682Z,39.28
2023-02-15T09:31:24.512Z,39.65
2023-02-15T09:34:13.095Z,39.95
2023-02-15T09:36:58.667Z,38.30
2023-02-15T09:39:44.821Z,37.50
2023-02-15T09:42:55.476Z,37.17
2023-02-15T09:46:04.713Z,39.75
2023-02-15T09:48:55.924Z,39.42
2023-02-15T09:52:39.230Z,37.03
2023-02-15T09:55:40.669Z,40.20
2023-02-15T09:58:36.565Z,39.83
2023-02-15T10:01:35.902Z,37.50
2023-02-15T10:04:41.538Z,37.95
2023-02-15T10:07:41.109Z,39.03
2023-02-15T10:10:35.731Z,36.03
2023-02-15T10:13:32.865Z,39.97
2023-02-15T10:16:28.699Z,37.47
2023-02-15T10:19:21.481Z,37.00
2023-02-15T10:22:19.462Z,36.40
2023-02-15T10:25:26.397Z,37.15
2023-02-15T10:28:17.949Z,34.83
2023-02-15T10:34:15.667Z,39.53
2023-02-15T10:37:15.713Z,36.33
2023-02-15T10:40:09.663Z,38.28
2023-02-15T10:43:14.847Z,40.78
2023-02-15T10:46:13.305Z,36.70
2023-02-15T10:49:13.564Z,40.63
2023-02-15T10:52:11.294Z,41.33
2023-02-15T10:55:04.134Z,38.70
2023-02-15T10:58:00.341Z,40.45
2023-02-15T11:00:52.043Z,34.85
2023-02-15T11:06:30.363Z,40.20
2023-02-15T11:09:19.374Z,37.95
2023-02-15T11:12:12.295Z,39.53
2023-02-15T11:15:04.728Z,38.58
2023-02-15T11:17:54.285Z,39.80
2023-02-15T11:20:51.130Z,39.17
2023-02-15T11:23:41.455Z,36.28
2023-02-15T11:26:32.332Z,43.50
2023-02-15T11:29:24.026Z,38.83
2023-02-15T11:32:19.999Z,40.03
2023-02-15T11:35:22.468Z,38.50
2023-02-15T11:38:18.783Z,38.90
2023-02-15T11:41:08.508Z,41.92
2023-02-15T11:43:59.189Z,44.60
2023-02-15T11:46:45.079Z,41.90
2023-02-15T11:49:33.633Z,41.22
2023-02-15T11:52:19.840Z,42.13
2023-02-15T11:55:15.605Z,37.72
2023-02-15T11:58:05.750Z,38.38
2023-02-15T12:00:56.641Z,39.38
2023-02-15T12:03:47.392Z,38.13
2023-02-15T12:06:39.717Z,40.42
2023-02-15T12:09:32.930Z,38.30
2023-02-15T12:12:25.401Z,41.95
2023-02-15T12:15:12.522Z,44.75
2023-02-15T12:17:58.450Z,40.40
2023-02-15T12:20:44.777Z,40.90
2023-02-15T12:23:31.938Z,40.50
2023-02-15T12:26:26.447Z,38.15
2023-02-15T12:29:18.533Z,37.70
2023-02-15T12:32:04.988Z,39.72
2023-02-15T12:34:52.822Z,40.45
2023-02-15T12:37:39.007Z,39.88
2023-02-15T12:40:28.079Z,40.10
2023-02-15T12:43:27.260Z,39.63
2023-02-15T12:46:23.329Z,43.88
2023-02-15T12:49:21.957Z,40.92
2023-02-15T12:52:25.096Z,40.13
2023-02-15T12:55:23.238Z,39.05
2023-02-15T12:58:17.018Z,37.92
2023-02-15T13:01:13.225Z,43.22
2023-02-15T13:04:04.235Z,39.65
2023-02-15T13:06:52.788Z,41.25
2023-02-15T13:09:40.582Z,41.80
2023-02-15T13:12:29.106Z,39.42
2023-02-15T13:15:27.162Z,42.35
2023-02-15T13:18:17.220Z,40.30
2023-02-15T13:21:13.142Z,44.15
2023-02-15T13:24:02.418Z,40.53
2023-02-15T13:26:48.974Z,40.35
2023-02-15T13:29:37.216Z,43.20
2023-02-15T13:32:29.846Z,41.95
2023-02-15T13:35:18.705Z,44.60
2023-02-15T13:38:20.305Z,43.67
2023-02-15T13:41:12.682Z,44.63
2023-02-15T13:44:08.754Z,42.90
2023-02-15T13:47:07.040Z,38.55
2023-02-15T13:50:15.106Z,37.53
2023-02-15T13:53:21.706Z,41.17
2023-02-15T13:56:18.942Z,45.17
2023-02-15T13:59:39.595Z,44.08
2023-02-15T14:02:45.309Z,40.97
2023-02-15T14:05:41.022Z,41.55
2023-02-15T14:08:44.613Z,44.75
2023-02-15T14:11:38.871Z,42.00
2023-02-15T14:14:46.012Z,42.20
2023-02-15T14:17:47.624Z,44.60
2023-02-15T14:23:43.147Z,46.97
2023-02-15T14:26:38.312Z,41.60
2023-02-15T14:29:39.805Z,46.97
2023-02-15T14:32:44.794Z,46.42
2023-02-15T14:35:32.252Z,43.08
2023-02-15T14:38:29.613Z,45.40
2023-02-15T14:41:21.510Z,41.28
2023-02-15T14:44:14.167Z,45.90
2023-02-15T14:47:07.122Z,46.10
2023-02-15T14:49:52.938Z,44.67
2023-02-15T14:53:16.948Z,46.67
2023-02-15T14:56:25.889Z,48.28
2023-02-15T14:59:17.317Z,42.53
2023-02-15T15:02:13.582Z,46.47
2023-02-15T15:05:08.029Z,44.20
2023-02-15T15:07:57.943Z,47.67
2023-02-15T15:10:45.123Z,49.22
2023-02-15T15:13:54.854Z,45.28
2023-02-15T15:16:53.026Z,49.10
2023-02-15T15:20:17.726Z,51.72
2023-02-15T15:23:40.436Z,46.33
2023-02-15T15:26:29.189Z,52.15
2023-02-15T15:29:40.600Z,49.92
2023-02-15T15:35:26.075Z,42.40
2023-02-15T15:38:28.531Z,50.45
2023-02-15T15:41:19.687Z,52.75
2023-02-15T15:44:35.163Z,53.90
2023-02-15T15:47:58.766Z,48.88
2023-02-15T15:50:54.986Z,47.35
2023-02-15T15:53:43.668Z,54.42
2023-02-15T15:56:34.640Z,50.60
2023-02-15T15:59:23.501Z,53.13
2023-02-15T16:02:16.440Z,53.13
2023-02-15T16:05:09.376Z,48.85
2023-02-15T16:07:54.942Z,53.28
2023-02-15T16:10:42.189Z,48.70
2023-02-15T16:13:28.223Z,53.75
2023-02-15T16:16:20.964Z,54.60
2023-02-15T16:19:19.456Z,54.35
2023-02-15T16:22:12.176Z,49.40
2023-02-15T16:25:27.821Z,55.20
2023-02-15T16:28:14.926Z,55.72
2023-02-15T16:31:10.065Z,52.45
2023-02-15T16:33:57.397Z,48.15
2023-02-15T16:36:44.400Z,49.20
2023-02-15T16:39:30.893Z,53.50
2023-02-15T16:42:18.518Z,54.17
2023-02-15T16:45:10.069Z,56.17
2023-02-15T16:47:58.642Z,56.20
2023-02-15T16:50:50.321Z,55.17
2023-02-15T16:53:38.497Z,54.67
2023-02-15T16:56:25.128Z,56.40
2023-02-15T16:59:20.930Z,56.67
2023-02-15T17:02:20.377Z,55.90
2023-02-15T17:05:18.615Z,49.80
2023-02-15T17:08:17.488Z,60.28
2023-02-15T17:11:17.923Z,50.25
2023-02-15T17:14:31.561Z,52.42
2023-02-15T17:17:17.044Z,56.47
2023-02-15T17:20:03.235Z,57.85
2023-02-15T17:22:49.166Z,54.58
2023-02-15T17:25:40.045Z,51.28
2023-02-15T17:28:30.867Z,58.70
2023-02-15T17:31:19.151Z,49.70
2023-02-15T17:34:05.706Z,51.72
2023-02-15T17:36:59.257Z,54.42
2023-02-15T17:39:45.313Z,51.28
2023-02-15T17:42:31.020Z,53.53
2023-02-15T17:45:18.442Z,51.63
2023-02-15T17:48:06.491Z,55.97
2023-02-15T17:50:52.396Z,56.45
2023-02-15T17:53:38.417Z,56.80
2023-02-15T17:56:24.446Z,52.72
2023-02-15T17:59:12.427Z,53.55
2023-02-15T18:02:18.647Z,56.47
2023-02-15T18:05:22.910Z,52.35
2023-02-15T18:08:30.909Z,60.65
2023-02-15T18:11:36.319Z,53.22
2023-02-15T18:14:21.940Z,57.53
2023-02-15T18:17:11.860Z,57.20
2023-02-15T18:19:57.772Z,38.33
2023-02-15T18:22:43.961Z,55.45
2023-02-15T18:25:29.957Z,57.83
2023-02-15T18:28:15.644Z,63.33
2023-02-15T18:31:02.192Z,65.35
2023-02-15T18:33:54.072Z,60.47
2023-02-15T18:36:44.079Z,60.33
2023-02-15T18:39:37.274Z,57.65
2023-02-15T18:42:24.795Z,59.92
2023-02-15T18:45:16.906Z,65.68
2023-02-15T18:48:02.875Z,55.92
2023-02-15T18:50:51.600Z,52.38
2023-02-15T18:53:37.474Z,57.63
2023-02-15T18:56:23.960Z,57.00
2023-02-15T18:59:15.662Z,60.35
2023-02-15T19:02:01.868Z,72.32
2023-02-15T19:04:47.641Z,64.43
2023-02-15T19:07:36.702Z,68.15
2023-02-15T19:10:24.940Z,63.15
2023-02-15T19:13:11.181Z,64.30
2023-02-15T19:15:58.941Z,71.15
2023-02-15T19:18:45.126Z,68.15
2023-02-15T19:21:32.236Z,61.40
2023-02-15T19:24:24.673Z,64.80
2023-02-15T19:27:21.093Z,61.03
2023-02-15T19:30:16.400Z,57.22
2023-02-15T19:33:02.818Z,53.10
2023-02-15T19:35:54.052Z,55.92
2023-02-15T19:38:41.160Z,54.30
2023-02-15T19:41:33.154Z,52.85
2023-02-15T19:44:19.058Z,57.47
2023-02-15T19:47:10.197Z,53.20
2023-02-15T19:52:50.333Z,50.80
2023-02-15T19:55:37.984Z,52.85
2023-02-15T19:58:25.845Z,56.15
2023-02-15T20:01:12.414Z,58.58
2023-02-15T20:03:59.246Z,57.08
2023-02-15T20:06:45.600Z,60.17
2023-02-15T20:09:35.499Z,55.63
2023-02-15T20:12:23.383Z,57.25
2023-02-15T20:15:20.595Z,58.20
2023-02-15T20:18:06.999Z,58.35
2023-02-15T20:20:55.090Z,56.30
2023-02-15T20:23:41.064Z,56.83
2023-02-15T20:26:29.910Z,55.53
2023-02-15T20:29:18.520Z,53.78
2023-02-15T20:32:06.503Z,55.13
2023-02-15T20:34:52.540Z,61.30
2023-02-15T20:37:38.747Z,56.08
2023-02-15T20:40:26.398Z,60.22
2023-02-15T20:43:15.368Z,56.22
2023-02-15T20:46:02.500Z,63.13
2023-02-15T20:48:50.271Z,56.83
2023-02-15T20:51:36.376Z,59.88
2023-02-15T20:54:24.683Z,56.38
2023-02-15T20:57:12.433Z,56.85
2023-02-15T20:59:58.011Z,60.40
2023-02-15T21:02:43.898Z,64.47
2023-02-15T21:05:33.414Z,62.85
2023-02-15T21:08:21.251Z,60.92
2023-02-15T21:11:18.154Z,59.78
2023-02-15T21:14:03.842Z,59.83
2023-02-15T21:16:50.713Z,63.70
2023-02-15T21:19:39.679Z,62.58
2023-02-15T21:22:27.913Z,63.15
2023-02-15T21:25:15.873Z,59.30
2023-02-15T21:28:06.104Z,57.85
2023-02-15T21:30:52.913Z,61.35
2023-02-15T21:33:38.859Z,59.25
2023-02-15T21:36:25.734Z,60.75
2023-02-15T21:39:21.258Z,61.80
2023-02-15T21:42:29.751Z,64.07
2023-02-15T21:45:34.722Z,63.47
2023-02-15T21:48:23.616Z,60.78
2023-02-15T21:51:27.642Z,61.80
2023-02-15T21:54:14.272Z,64.15
2023-02-15T21:57:01.765Z,61.60
2023-02-15T21:59:47.854Z,69.03
2023-02-15T22:02:34.014Z,59.85
2023-02-15T22:05:22.401Z,63.28
2023-02-15T22:08:12.909Z,64.60
2023-02-15T22:10:58.702Z,65.00
2023-02-15T22:13:46.498Z,64.50
2023-02-15T22:16:32.082Z,63.70
2023-02-15T22:19:18.397Z,64.28
2023-02-15T22:22:03.926Z,69.45
2023-02-15T22:24:50.155Z,65.75
2023-02-15T22:27:39.583Z,63.83
2023-02-15T22:30:29.969Z,67.57
2023-02-15T22:33:23.701Z,67.75
2023-02-15T22:36:21.810Z,65.80
2023-02-15T22:39:07.712Z,74.60
2023-02-15T22:41:54.599Z,70.53
2023-02-15T22:44:40.269Z,71.78
2023-02-15T22:47:29.236Z,66.57
2023-02-15T22:50:18.281Z,66.22
2023-02-15T22:53:04.259Z,68.75
2023-02-15T22:55:50.259Z,68.00
2023-02-15T22:58:36.077Z,71.60
2023-02-15T23:01:26.237Z,68.78
2023-02-15T23:04:17.166Z,66.00
2023-02-15T23:07:10.338Z,66.55
2023-02-15T23:09:55.976Z,65.95
2023-02-15T23:13:02.010Z,67.20
2023-02-15T23:15:49.773Z,63.88
2023-02-15T23:18:38.642Z,68.28
2023-02-15T23:21:28.730Z,64.15
2023-02-15T23:24:19.456Z,65.20
2023-02-15T23:27:25.408Z,70.13
2023-02-15T23:30:14.122Z,71.82
2023-02-15T23:33:00.149Z,66.45
2023-02-15T23:35:45.607Z,67.93
2023-02-15T23:38:33.424Z,67.25
2023-02-15T23:41:23.007Z,73.20
2023-02-15T23:44:12.165Z,66.65
2023-02-15T23:46:58.192Z,66.47
2023-02-15T23:49:43.698Z,68.03
2023-02-15T23:52:29.394Z,69.35
2023-02-15T23:55:17.448Z,69.13
2023-02-15T23:58:03.802Z,66.82
